Terminal Aerodrome Forecast
Issued by NWS

Home | Current Version | Previous Version | Graphics & Text | Print | Product List | Glossary On
Versions: 1 2 3 4 5 6 7 8 9 10 11 12 13 14 15 16 17 18 19 20 21
000
FTUS43 KMPX 032333
TAFRWF
TAF
KRWF 032333Z 0400/0424 35015G25KT P6SM VCTS SCT045CB BKN070
      TEMPO 0400/0402 5SM -SHRA BKN045
     FM040200 35011KT P6SM SCT050 BKN090
     FM040600 35006KT P6SM SKC
     FM041500 04012KT P6SM BKN250=

USA.gov is the U.S. government's official web portal to all federal, state and local government web resources and services.